Currently 53°F in De Luz, California, USA
53°F
56°F / 50°F
calm
0.00"
Tuesday, April 24, 2018 7:45 AM PDT

De Luz, California Weather Summary
Last 36 Hours

Temperature Winds Hourly Humidity Dewpoint
Time Report Norm Report Norm Max Gusts Precip. Rpt. Norm Rpt. Norm Pressure
1Tue 07:45 AM  52.6°F  55°F  calm  calm  none  0.00"  86%  79%  48°F  49°F  29.96"
Tue 07:00 AM  50.4°F  54°F  calm  calm  none  0.00"  86%  80%  46°F  47°F  29.96"
3Tue 06:43 AM  50.1°F  54°F  calm  calm  none  ----  83%  80%  45°F  47°F  29.95"
Tue 06:00 AM  51.9°F  53°F  calm  calm  3 mph  0.00"  78%  80%  45°F  47°F  29.97"
Tue 05:01 AM  55.3°F  54°F  calm  calm  2 mph  0.00"  68%  80%  45°F  47°F  29.94"
2Tue 04:35 AM  55.9°F  54°F  calm  calm  none  ----  67%  80%  45°F  48°F  29.93"
Tue 04:00 AM  54.1°F  54°F  calm  calm  none  0.00"  75%  80%  46°F  48°F  29.92"
Tue 03:00 AM  51.9°F  54°F  calm  calm  none  0.00"  91%  80%  49°F  48°F  29.93"
Tue 02:00 AM  52.5°F  54°F  calm  calm  none  0.00"  91%  80%  50°F  48°F  29.95"
Tue 01:00 AM  53.6°F  54°F  calm  calm  2 mph  0.00"  87%  80%  50°F  48°F  29.99"
Tue 12:00 AM  55.0°F  55°F  calm  calm  2 mph  0.00"  79%  80%  48°F  48°F  29.97"
Mon 11:00 PM  53.9°F  55°F  calm  calm  none  0.00"  84%  80%  49°F  49°F  29.97"
Mon 10:01 PM  54.8°F  56°F  calm  calm  none  0.00"  89%  80%  51°F  49°F  29.97"
Mon 09:00 PM  55.7°F  57°F  calm  calm  none  0.00"  86%  77%  51°F  49°F  29.97"
Mon 08:00 PM  56.9°F  59°F  calm  1 mph  7 mph  0.00"  85%  73%  52°F  50°F  29.97"
Mon 07:01 PM  59.6°F  62°F  3 mph S  2 mph  13 mph  0.00"  78%  66%  52°F  50°F  29.95"
Mon 06:00 PM  66.9°F  65°F  6 mph S  2 mph  16 mph  0.00"  64%  58%  54°F  50°F  29.93"
Mon 05:00 PM  73.9°F  68°F  5 mph S  3 mph  17 mph  0.00"  49%  53%  53°F  50°F  29.93"
Mon 04:00 PM  77.7°F  70°F  6 mph SW  3 mph  15 mph  0.00"  41%  50%  51°F  50°F  29.92"
Mon 03:00 PM  79.2°F  72°F  5 mph S  3 mph  13 mph  0.00"  37%  48%  50°F  50°F  29.94"
Mon 02:00 PM  79.4°F  72°F  4 mph S  2 mph  16 mph  0.00"  38%  48%  51°F  50°F  29.95"
Mon 01:01 PM  80.7°F  71°F  1 mph S  2 mph  9 mph  0.00"  29%  48%  44°F  50°F  29.97"
Mon 12:00 PM  77.4°F  70°F  1 mph S  2 mph  11 mph  0.00"  31%  50%  43°F  50°F  29.96"
Mon 11:00 AM  72.7°F  68°F  3 mph S  1 mph  10 mph  0.00"  44%  54%  49°F  50°F  29.98"
Mon 10:01 AM  72.3°F  64°F  calm  1 mph  1 mph  0.00"  45%  60%  49°F  50°F  29.98"
Mon 09:00 AM  65.0°F  61°F  calm  1 mph  none  0.00"  53%  68%  47°F  50°F  29.98"
Mon 08:00 AM  55.1°F  56°F  calm  calm  none  0.00"  67%  77%  44°F  49°F  29.98"
Mon 07:00 AM  53.8°F  54°F  calm  calm  none  0.00"  65%  79%  42°F  47°F  29.98"
Mon 06:01 AM  55.9°F  53°F  calm  calm  2 mph  0.00"  61%  79%  42°F  47°F  29.95"
Mon 05:00 AM  58.1°F  54°F  calm  calm  2 mph  0.00"  55%  79%  41°F  47°F  29.93"
Mon 04:00 AM  56.5°F  54°F  calm  calm  none  0.00"  61%  80%  43°F  47°F  29.91"
Mon 03:00 AM  57.2°F  54°F  calm  calm  none  0.00"  57%  79%  42°F  48°F  29.94"
Mon 02:00 AM  58.0°F  54°F  calm  calm  none  0.00"  54%  80%  41°F  48°F  29.94"
Mon 01:00 AM  56.9°F  54°F  calm  calm  none  0.00"  58%  79%  42°F  48°F  29.92"
Mon 12:00 AM  57.2°F  55°F  calm  calm  none  0.00"  62%  79%  44°F  48°F  29.94"
Sun 11:01 PM  55.4°F  55°F  calm  calm  none  0.00"  74%  79%  47°F  48°F  29.94"
Sun 10:00 PM  57.2°F  56°F  calm  calm  none  0.00"  83%  78%  52°F  49°F  29.95"
Sun 09:00 PM  58.6°F  57°F  calm  calm  none  0.00"  78%  76%  52°F  49°F  29.91"
Sun 08:00 PM  62.6°F  58°F  calm  1 mph  none  0.00"  71%  72%  53°F  49°F  29.91"

  1. Current weather data. No green row appears if the current weather data is also the high or low for the current day.
  2. High temperature for the current day.
  3. Low temperature for the current day.

The De Luz, California weather pages are a service of WeatherCurrents. De Luz is located west of the Temecula Valley and north of Fallbrook, on the Santa Rosa Plateau, in southwestern Riverside County, California.
Copyright ©Tue Apr 24 07:46:46 PDT 2018  WeatherCurrents. All rights reserved. - Submit questions and comments - Privacy Policy

This page automatically refreshes every 10 minutes.